sensor_id;sensor_type;location;lat;lon;timestamp;P1;durP1;ratioP1;P2;durP2;ratioP2
61899;SDS011;47853;55.890;37.664;2023-05-10T00:01:13;11.23;;;5.50;;
61899;SDS011;47853;55.890;37.664;2023-05-10T00:03:38;10.50;;;5.47;;
61899;SDS011;47853;55.890;37.664;2023-05-10T00:06:03;10.33;;;4.77;;
61899;SDS011;47853;55.890;37.664;2023-05-10T00:08:28;9.00;;;5.13;;
61899;SDS011;47853;55.890;37.664;2023-05-10T00:10:54;11.47;;;5.50;;
61899;SDS011;47853;55.890;37.664;2023-05-10T00:13:19;12.80;;;5.13;;
61899;SDS011;47853;55.890;37.664;2023-05-10T00:15:44;7.03;;;4.32;;
61899;SDS011;47853;55.890;37.664;2023-05-10T00:18:09;10.40;;;4.80;;
61899;SDS011;47853;55.890;37.664;2023-05-10T00:20:34;7.80;;;4.90;;
61899;SDS011;47853;55.890;37.664;2023-05-10T00:23:00;10.17;;;5.40;;
61899;SDS011;47853;55.890;37.664;2023-05-10T00:25:25;12.97;;;5.53;;
61899;SDS011;47853;55.890;37.664;2023-05-10T00:27:50;10.35;;;5.80;;
61899;SDS011;47853;55.890;37.664;2023-05-10T00:30:15;16.17;;;6.60;;
61899;SDS011;47853;55.890;37.664;2023-05-10T00:32:40;15.07;;;5.28;;
61899;SDS011;47853;55.890;37.664;2023-05-10T00:35:06;15.45;;;6.53;;
61899;SDS011;47853;55.890;37.664;2023-05-10T00:37:31;15.68;;;5.50;;
61899;SDS011;47853;55.890;37.664;2023-05-10T00:39:56;13.65;;;7.03;;
61899;SDS011;47853;55.890;37.664;2023-05-10T00:42:21;13.43;;;6.77;;
61899;SDS011;47853;55.890;37.664;2023-05-10T00:44:46;19.40;;;6.95;;
61899;SDS011;47853;55.890;37.664;2023-05-10T00:47:12;13.40;;;6.47;;
61899;SDS011;47853;55.890;37.664;2023-05-10T00:49:37;17.10;;;6.97;;
61899;SDS011;47853;55.890;37.664;2023-05-10T00:52:02;15.65;;;6.40;;
61899;SDS011;47853;55.890;37.664;2023-05-10T00:54:28;13.45;;;6.40;;
61899;SDS011;47853;55.890;37.664;2023-05-10T00:56:53;12.77;;;6.30;;
61899;SDS011;47853;55.890;37.664;2023-05-10T00:59:18;15.37;;;6.27;;
61899;SDS011;47853;55.890;37.664;2023-05-10T01:01:47;13.75;;;5.97;;
61899;SDS011;47853;55.890;37.664;2023-05-10T01:04:12;12.95;;;5.28;;
61899;SDS011;47853;55.890;37.664;2023-05-10T01:06:38;12.40;;;5.75;;
61899;SDS011;47853;55.890;37.664;2023-05-10T01:09:03;11.85;;;6.47;;
61899;SDS011;47853;55.890;37.664;2023-05-10T01:11:28;13.80;;;6.23;;
61899;SDS011;47853;55.890;37.664;2023-05-10T01:13:56;11.03;;;6.13;;
61899;SDS011;47853;55.890;37.664;2023-05-10T01:16:22;15.82;;;6.85;;
61899;SDS011;47853;55.890;37.664;2023-05-10T01:18:48;10.77;;;6.22;;
61899;SDS011;47853;55.890;37.664;2023-05-10T01:29:15;8.60;;;5.07;;
61899;SDS011;47853;55.890;37.664;2023-05-10T01:36:43;13.35;;;5.32;;
61899;SDS011;47853;55.890;37.664;2023-05-10T01:44:37;9.63;;;5.47;;
61899;SDS011;47853;55.890;37.664;2023-05-10T01:49:34;17.65;;;5.57;;
61899;SDS011;47853;55.890;37.664;2023-05-10T01:52:15;9.63;;;4.82;;
61899;SDS011;47853;55.890;37.664;2023-05-10T01:54:42;7.95;;;4.47;;
61899;SDS011;47853;55.890;37.664;2023-05-10T01:57:09;10.32;;;5.05;;
61899;SDS011;47853;55.890;37.664;2023-05-10T01:59:36;9.95;;;4.65;;
61899;SDS011;47853;55.890;37.664;2023-05-10T02:02:02;11.25;;;5.15;;
61899;SDS011;47853;55.890;37.664;2023-05-10T02:04:29;7.93;;;4.63;;
61899;SDS011;47853;55.890;37.664;2023-05-10T02:06:55;9.60;;;4.60;;
61899;SDS011;47853;55.890;37.664;2023-05-10T02:09:21;7.85;;;4.57;;
61899;SDS011;47853;55.890;37.664;2023-05-10T02:11:46;11.80;;;5.40;;
61899;SDS011;47853;55.890;37.664;2023-05-10T02:14:12;11.50;;;4.95;;
61899;SDS011;47853;55.890;37.664;2023-05-10T02:16:38;12.30;;;5.35;;
61899;SDS011;47853;55.890;37.664;2023-05-10T02:19:04;10.55;;;5.43;;
61899;SDS011;47853;55.890;37.664;2023-05-10T02:21:29;11.73;;;5.50;;
61899;SDS011;47853;55.890;37.664;2023-05-10T02:23:55;15.65;;;5.47;;
61899;SDS011;47853;55.890;37.664;2023-05-10T02:26:21;9.52;;;5.07;;
61899;SDS011;47853;55.890;37.664;2023-05-10T02:28:48;10.05;;;4.43;;
61899;SDS011;47853;55.890;37.664;2023-05-10T02:31:14;12.02;;;4.70;;
61899;SDS011;47853;55.890;37.664;2023-05-10T02:33:39;10.52;;;4.88;;
61899;SDS011;47853;55.890;37.664;2023-05-10T02:36:06;14.77;;;5.55;;
61899;SDS011;47853;55.890;37.664;2023-05-10T02:38:32;11.25;;;4.97;;
61899;SDS011;47853;55.890;37.664;2023-05-10T02:40:57;12.30;;;5.00;;
61899;SDS011;47853;55.890;37.664;2023-05-10T02:43:24;10.52;;;5.00;;
61899;SDS011;47853;55.890;37.664;2023-05-10T02:45:49;13.73;;;4.75;;
61899;SDS011;47853;55.890;37.664;2023-05-10T02:48:15;16.75;;;4.93;;
61899;SDS011;47853;55.890;37.664;2023-05-10T02:50:41;12.52;;;5.10;;
61899;SDS011;47853;55.890;37.664;2023-05-10T02:53:09;9.32;;;4.70;;
61899;SDS011;47853;55.890;37.664;2023-05-10T02:55:36;9.43;;;4.50;;
61899;SDS011;47853;55.890;37.664;2023-05-10T02:58:02;9.43;;;4.75;;
61899;SDS011;47853;55.890;37.664;2023-05-10T03:00:28;12.77;;;5.25;;
61899;SDS011;47853;55.890;37.664;2023-05-10T03:02:53;13.38;;;5.10;;
61899;SDS011;47853;55.890;37.664;2023-05-10T03:05:18;14.63;;;4.97;;
61899;SDS011;47853;55.890;37.664;2023-05-10T03:07:44;11.25;;;4.95;;
61899;SDS011;47853;55.890;37.664;2023-05-10T03:10:09;9.48;;;4.53;;
61899;SDS011;47853;55.890;37.664;2023-05-10T03:15:22;10.40;;;4.43;;
61899;SDS011;47853;55.890;37.664;2023-05-10T03:17:56;10.55;;;4.88;;
61899;SDS011;47853;55.890;37.664;2023-05-10T03:20:36;9.10;;;4.00;;
61899;SDS011;47853;55.890;37.664;2023-05-10T03:25:47;8.32;;;4.93;;
61899;SDS011;47853;55.890;37.664;2023-05-10T03:28:13;10.23;;;4.45;;
61899;SDS011;47853;55.890;37.664;2023-05-10T03:30:39;13.02;;;5.72;;
61899;SDS011;47853;55.890;37.664;2023-05-10T03:33:05;14.40;;;5.70;;
61899;SDS011;47853;55.890;37.664;2023-05-10T03:35:30;12.90;;;4.95;;
61899;SDS011;47853;55.890;37.664;2023-05-10T03:37:56;10.48;;;5.00;;
61899;SDS011;47853;55.890;37.664;2023-05-10T03:40:21;11.90;;;5.07;;
61899;SDS011;47853;55.890;37.664;2023-05-10T03:42:46;16.87;;;4.87;;
61899;SDS011;47853;55.890;37.664;2023-05-10T03:45:11;13.27;;;4.83;;
61899;SDS011;47853;55.890;37.664;2023-05-10T03:47:36;13.97;;;5.30;;
61899;SDS011;47853;55.890;37.664;2023-05-10T03:50:01;16.00;;;5.10;;
61899;SDS011;47853;55.890;37.664;2023-05-10T03:52:27;15.15;;;5.07;;
61899;SDS011;47853;55.890;37.664;2023-05-10T03:54:52;11.47;;;4.97;;
61899;SDS011;47853;55.890;37.664;2023-05-10T03:57:17;13.60;;;4.53;;
61899;SDS011;47853;55.890;37.664;2023-05-10T03:59:42;17.23;;;4.30;;
61899;SDS011;47853;55.890;37.664;2023-05-10T04:02:07;17.13;;;4.80;;
61899;SDS011;47853;55.890;37.664;2023-05-10T04:04:32;11.47;;;4.57;;
61899;SDS011;47853;55.890;37.664;2023-05-10T04:06:58;8.70;;;4.37;;
61899;SDS011;47853;55.890;37.664;2023-05-10T04:09:23;11.50;;;3.93;;
61899;SDS011;47853;55.890;37.664;2023-05-10T04:11:48;12.40;;;4.10;;
61899;SDS011;47853;55.890;37.664;2023-05-10T04:14:13;16.92;;;4.15;;
61899;SDS011;47853;55.890;37.664;2023-05-10T04:16:38;15.47;;;4.33;;
61899;SDS011;47853;55.890;37.664;2023-05-10T04:19:03;17.53;;;4.20;;
61899;SDS011;47853;55.890;37.664;2023-05-10T04:21:29;11.03;;;3.80;;
61899;SDS011;47853;55.890;37.664;2023-05-10T04:23:54;19.35;;;4.55;;
61899;SDS011;47853;55.890;37.664;2023-05-10T04:26:19;16.67;;;4.93;;
61899;SDS011;47853;55.890;37.664;2023-05-10T04:28:44;14.87;;;4.20;;
61899;SDS011;47853;55.890;37.664;2023-05-10T04:31:09;7.60;;;4.70;;
61899;SDS011;47853;55.890;37.664;2023-05-10T04:33:35;13.65;;;3.67;;
61899;SDS011;47853;55.890;37.664;2023-05-10T04:36:00;19.10;;;4.43;;
61899;SDS011;47853;55.890;37.664;2023-05-10T04:38:25;13.25;;;3.78;;
61899;SDS011;47853;55.890;37.664;2023-05-10T04:40:51;8.70;;;3.67;;
61899;SDS011;47853;55.890;37.664;2023-05-10T04:43:16;10.47;;;3.73;;
61899;SDS011;47853;55.890;37.664;2023-05-10T04:45:41;13.17;;;3.93;;
61899;SDS011;47853;55.890;37.664;2023-05-10T04:48:06;11.93;;;4.30;;
61899;SDS011;47853;55.890;37.664;2023-05-10T04:50:31;9.93;;;4.07;;
61899;SDS011;47853;55.890;37.664;2023-05-10T04:52:57;9.80;;;4.43;;
61899;SDS011;47853;55.890;37.664;2023-05-10T04:55:22;13.73;;;4.20;;
61899;SDS011;47853;55.890;37.664;2023-05-10T04:57:47;9.35;;;4.10;;
61899;SDS011;47853;55.890;37.664;2023-05-10T05:00:12;16.67;;;4.40;;
61899;SDS011;47853;55.890;37.664;2023-05-10T05:02:44;11.63;;;3.70;;
61899;SDS011;47853;55.890;37.664;2023-05-10T05:05:09;8.63;;;3.58;;
61899;SDS011;47853;55.890;37.664;2023-05-10T05:07:34;8.33;;;4.07;;
61899;SDS011;47853;55.890;37.664;2023-05-10T05:10:00;18.43;;;4.90;;
61899;SDS011;47853;55.890;37.664;2023-05-10T05:12:25;13.57;;;3.70;;
61899;SDS011;47853;55.890;37.664;2023-05-10T05:14:50;14.53;;;3.73;;
61899;SDS011;47853;55.890;37.664;2023-05-10T05:17:15;12.87;;;6.27;;
61899;SDS011;47853;55.890;37.664;2023-05-10T05:19:40;11.40;;;3.77;;
61899;SDS011;47853;55.890;37.664;2023-05-10T05:22:06;11.20;;;3.77;;
61899;SDS011;47853;55.890;37.664;2023-05-10T05:24:34;10.32;;;4.07;;
61899;SDS011;47853;55.890;37.664;2023-05-10T05:26:59;8.52;;;3.80;;
61899;SDS011;47853;55.890;37.664;2023-05-10T05:29:25;7.40;;;3.40;;
61899;SDS011;47853;55.890;37.664;2023-05-10T05:31:50;12.10;;;4.00;;
61899;SDS011;47853;55.890;37.664;2023-05-10T05:34:15;13.50;;;3.20;;
61899;SDS011;47853;55.890;37.664;2023-05-10T05:36:40;7.13;;;2.73;;
61899;SDS011;47853;55.890;37.664;2023-05-10T05:39:05;6.97;;;3.03;;
61899;SDS011;47853;55.890;37.664;2023-05-10T05:41:30;8.30;;;2.70;;
61899;SDS011;47853;55.890;37.664;2023-05-10T05:43:56;7.13;;;2.60;;
61899;SDS011;47853;55.890;37.664;2023-05-10T05:46:21;6.40;;;2.90;;
61899;SDS011;47853;55.890;37.664;2023-05-10T05:48:46;7.23;;;2.63;;
61899;SDS011;47853;55.890;37.664;2023-05-10T05:51:11;5.47;;;2.50;;
61899;SDS011;47853;55.890;37.664;2023-05-10T05:53:36;4.50;;;2.20;;
61899;SDS011;47853;55.890;37.664;2023-05-10T05:56:01;6.93;;;2.30;;
61899;SDS011;47853;55.890;37.664;2023-05-10T05:58:27;6.28;;;2.50;;
61899;SDS011;47853;55.890;37.664;2023-05-10T06:00:52;4.93;;;2.20;;
61899;SDS011;47853;55.890;37.664;2023-05-10T06:03:17;7.67;;;2.57;;
61899;SDS011;47853;55.890;37.664;2023-05-10T06:05:43;5.55;;;2.28;;
61899;SDS011;47853;55.890;37.664;2023-05-10T06:08:08;6.43;;;2.40;;
61899;SDS011;47853;55.890;37.664;2023-05-10T06:10:33;5.47;;;2.37;;
61899;SDS011;47853;55.890;37.664;2023-05-10T06:12:58;2.90;;;1.92;;
61899;SDS011;47853;55.890;37.664;2023-05-10T06:15:24;5.37;;;2.00;;
61899;SDS011;47853;55.890;37.664;2023-05-10T06:17:49;4.83;;;1.93;;
61899;SDS011;47853;55.890;37.664;2023-05-10T06:20:14;6.30;;;1.93;;
61899;SDS011;47853;55.890;37.664;2023-05-10T06:22:40;3.28;;;2.03;;
61899;SDS011;47853;55.890;37.664;2023-05-10T06:25:05;4.13;;;1.75;;
61899;SDS011;47853;55.890;37.664;2023-05-10T06:27:30;3.67;;;1.70;;
61899;SDS011;47853;55.890;37.664;2023-05-10T06:29:56;5.43;;;2.07;;
61899;SDS011;47853;55.890;37.664;2023-05-10T06:32:21;5.67;;;1.97;;
61899;SDS011;47853;55.890;37.664;2023-05-10T06:34:46;3.73;;;2.20;;
61899;SDS011;47853;55.890;37.664;2023-05-10T06:37:11;5.97;;;2.17;;
61899;SDS011;47853;55.890;37.664;2023-05-10T06:39:36;5.13;;;2.30;;
61899;SDS011;47853;55.890;37.664;2023-05-10T06:42:02;8.60;;;2.63;;
61899;SDS011;47853;55.890;37.664;2023-05-10T06:44:27;8.53;;;3.53;;
61899;SDS011;47853;55.890;37.664;2023-05-10T06:46:52;4.40;;;2.60;;
61899;SDS011;47853;55.890;37.664;2023-05-10T06:49:17;7.73;;;2.57;;
61899;SDS011;47853;55.890;37.664;2023-05-10T06:51:42;9.00;;;2.90;;
61899;SDS011;47853;55.890;37.664;2023-05-10T06:54:07;7.18;;;2.92;;
61899;SDS011;47853;55.890;37.664;2023-05-10T06:56:33;10.70;;;2.73;;
61899;SDS011;47853;55.890;37.664;2023-05-10T06:58:58;6.07;;;2.87;;
61899;SDS011;47853;55.890;37.664;2023-05-10T07:01:23;6.80;;;2.80;;
61899;SDS011;47853;55.890;37.664;2023-05-10T07:03:48;6.73;;;2.60;;
61899;SDS011;47853;55.890;37.664;2023-05-10T07:06:13;11.03;;;2.57;;
61899;SDS011;47853;55.890;37.664;2023-05-10T07:08:38;20.83;;;12.37;;
61899;SDS011;47853;55.890;37.664;2023-05-10T07:11:04;11.93;;;2.83;;
61899;SDS011;47853;55.890;37.664;2023-05-10T07:13:30;7.40;;;2.53;;
61899;SDS011;47853;55.890;37.664;2023-05-10T07:15:55;8.80;;;2.67;;
61899;SDS011;47853;55.890;37.664;2023-05-10T07:18:20;5.77;;;2.60;;
61899;SDS011;47853;55.890;37.664;2023-05-10T07:20:46;11.03;;;2.97;;
61899;SDS011;47853;55.890;37.664;2023-05-10T07:23:11;9.37;;;3.20;;
61899;SDS011;47853;55.890;37.664;2023-05-10T07:25:36;9.07;;;2.80;;
61899;SDS011;47853;55.890;37.664;2023-05-10T07:28:01;8.50;;;2.67;;
61899;SDS011;47853;55.890;37.664;2023-05-10T07:30:26;8.00;;;2.17;;
61899;SDS011;47853;55.890;37.664;2023-05-10T07:32:51;4.80;;;2.40;;
61899;SDS011;47853;55.890;37.664;2023-05-10T07:35:17;5.93;;;2.50;;
61899;SDS011;47853;55.890;37.664;2023-05-10T07:37:42;6.13;;;2.60;;
61899;SDS011;47853;55.890;37.664;2023-05-10T07:40:07;12.17;;;2.60;;
61899;SDS011;47853;55.890;37.664;2023-05-10T07:42:33;11.70;;;3.20;;
61899;SDS011;47853;55.890;37.664;2023-05-10T07:44:58;9.57;;;2.53;;
61899;SDS011;47853;55.890;37.664;2023-05-10T07:47:23;7.63;;;2.57;;
61899;SDS011;47853;55.890;37.664;2023-05-10T07:49:48;9.33;;;2.60;;
61899;SDS011;47853;55.890;37.664;2023-05-10T07:52:13;4.93;;;2.27;;
61899;SDS011;47853;55.890;37.664;2023-05-10T07:54:38;6.13;;;2.07;;
61899;SDS011;47853;55.890;37.664;2023-05-10T07:57:04;6.60;;;2.10;;
61899;SDS011;47853;55.890;37.664;2023-05-10T07:59:29;6.17;;;2.30;;
61899;SDS011;47853;55.890;37.664;2023-05-10T08:01:54;11.50;;;3.23;;
61899;SDS011;47853;55.890;37.664;2023-05-10T08:04:19;9.23;;;2.60;;
61899;SDS011;47853;55.890;37.664;2023-05-10T08:06:44;8.03;;;2.70;;
61899;SDS011;47853;55.890;37.664;2023-05-10T08:09:09;7.20;;;2.60;;
61899;SDS011;47853;55.890;37.664;2023-05-10T08:11:34;4.73;;;2.10;;
61899;SDS011;47853;55.890;37.664;2023-05-10T08:14:00;3.60;;;2.00;;
61899;SDS011;47853;55.890;37.664;2023-05-10T08:16:25;8.67;;;2.17;;
61899;SDS011;47853;55.890;37.664;2023-05-10T08:18:50;6.83;;;2.00;;
61899;SDS011;47853;55.890;37.664;2023-05-10T08:21:15;5.43;;;2.20;;
61899;SDS011;47853;55.890;37.664;2023-05-10T08:23:40;4.90;;;2.00;;
61899;SDS011;47853;55.890;37.664;2023-05-10T08:26:06;6.28;;;2.17;;
61899;SDS011;47853;55.890;37.664;2023-05-10T08:28:31;10.47;;;2.57;;
61899;SDS011;47853;55.890;37.664;2023-05-10T08:30:56;3.63;;;1.90;;
61899;SDS011;47853;55.890;37.664;2023-05-10T08:33:21;4.77;;;2.50;;
61899;SDS011;47853;55.890;37.664;2023-05-10T08:35:46;5.67;;;1.90;;
61899;SDS011;47853;55.890;37.664;2023-05-10T08:38:12;8.13;;;2.20;;
61899;SDS011;47853;55.890;37.664;2023-05-10T08:40:37;5.00;;;2.00;;
61899;SDS011;47853;55.890;37.664;2023-05-10T08:43:06;6.53;;;2.38;;
61899;SDS011;47853;55.890;37.664;2023-05-10T08:45:32;4.90;;;2.40;;
61899;SDS011;47853;55.890;37.664;2023-05-10T08:47:58;5.40;;;1.90;;
61899;SDS011;47853;55.890;37.664;2023-05-10T08:50:24;5.50;;;2.45;;
61899;SDS011;47853;55.890;37.664;2023-05-10T08:52:50;11.52;;;1.70;;
61899;SDS011;47853;55.890;37.664;2023-05-10T08:55:17;4.85;;;1.38;;
61899;SDS011;47853;55.890;37.664;2023-05-10T08:57:42;5.22;;;1.35;;
61899;SDS011;47853;55.890;37.664;2023-05-10T09:00:08;5.17;;;1.10;;
61899;SDS011;47853;55.890;37.664;2023-05-10T09:02:33;2.50;;;1.20;;
61899;SDS011;47853;55.890;37.664;2023-05-10T09:04:59;3.88;;;1.63;;
61899;SDS011;47853;55.890;37.664;2023-05-10T09:07:24;3.30;;;1.43;;
61899;SDS011;47853;55.890;37.664;2023-05-10T09:09:49;2.10;;;1.13;;
61899;SDS011;47853;55.890;37.664;2023-05-10T09:12:15;3.20;;;0.90;;
61899;SDS011;47853;55.890;37.664;2023-05-10T09:14:40;3.60;;;1.10;;
61899;SDS011;47853;55.890;37.664;2023-05-10T09:17:06;3.55;;;1.10;;
61899;SDS011;47853;55.890;37.664;2023-05-10T09:19:32;1.20;;;1.10;;
61899;SDS011;47853;55.890;37.664;2023-05-10T09:21:57;1.53;;;1.17;;
61899;SDS011;47853;55.890;37.664;2023-05-10T09:24:25;2.43;;;1.30;;
61899;SDS011;47853;55.890;37.664;2023-05-10T09:26:50;3.95;;;1.30;;
61899;SDS011;47853;55.890;37.664;2023-05-10T09:29:16;4.00;;;1.53;;
61899;SDS011;47853;55.890;37.664;2023-05-10T09:31:45;1.67;;;1.37;;
61899;SDS011;47853;55.890;37.664;2023-05-10T09:34:10;3.42;;;1.30;;
61899;SDS011;47853;55.890;37.664;2023-05-10T09:36:35;2.17;;;1.10;;
61899;SDS011;47853;55.890;37.664;2023-05-10T09:39:00;1.98;;;1.20;;
61899;SDS011;47853;55.890;37.664;2023-05-10T09:41:25;2.40;;;1.10;;
61899;SDS011;47853;55.890;37.664;2023-05-10T09:43:55;1.85;;;1.25;;
61899;SDS011;47853;55.890;37.664;2023-05-10T09:46:20;1.52;;;1.15;;
61899;SDS011;47853;55.890;37.664;2023-05-10T09:48:46;1.85;;;1.35;;
61899;SDS011;47853;55.890;37.664;2023-05-10T09:51:21;1.90;;;1.25;;
61899;SDS011;47853;55.890;37.664;2023-05-10T09:53:47;1.67;;;1.20;;
61899;SDS011;47853;55.890;37.664;2023-05-10T09:56:12;4.80;;;1.48;;
61899;SDS011;47853;55.890;37.664;2023-05-10T09:58:37;3.10;;;1.63;;
61899;SDS011;47853;55.890;37.664;2023-05-10T10:01:02;1.48;;;1.23;;
61899;SDS011;47853;55.890;37.664;2023-05-10T10:03:28;6.47;;;1.48;;
61899;SDS011;47853;55.890;37.664;2023-05-10T10:05:53;2.97;;;1.17;;
61899;SDS011;47853;55.890;37.664;2023-05-10T10:08:18;1.98;;;1.25;;
61899;SDS011;47853;55.890;37.664;2023-05-10T10:10:44;2.90;;;1.33;;
61899;SDS011;47853;55.890;37.664;2023-05-10T10:13:09;4.40;;;1.53;;
61899;SDS011;47853;55.890;37.664;2023-05-10T10:15:34;5.45;;;1.45;;
61899;SDS011;47853;55.890;37.664;2023-05-10T10:18:00;2.47;;;1.33;;
61899;SDS011;47853;55.890;37.664;2023-05-10T10:20:25;2.15;;;1.20;;
61899;SDS011;47853;55.890;37.664;2023-05-10T10:22:50;1.52;;;1.10;;
61899;SDS011;47853;55.890;37.664;2023-05-10T10:25:16;3.25;;;2.30;;
61899;SDS011;47853;55.890;37.664;2023-05-10T10:35:09;2.38;;;1.25;;
61899;SDS011;47853;55.890;37.664;2023-05-10T10:37:42;3.10;;;1.50;;
61899;SDS011;47853;55.890;37.664;2023-05-10T10:42:56;3.42;;;1.63;;
61899;SDS011;47853;55.890;37.664;2023-05-10T10:45:22;3.47;;;1.70;;
61899;SDS011;47853;55.890;37.664;2023-05-10T10:47:47;5.75;;;1.60;;
61899;SDS011;47853;55.890;37.664;2023-05-10T10:50:13;5.77;;;1.50;;
61899;SDS011;47853;55.890;37.664;2023-05-10T10:52:38;3.17;;;1.35;;
61899;SDS011;47853;55.890;37.664;2023-05-10T10:57:33;4.75;;;2.13;;
61899;SDS011;47853;55.890;37.664;2023-05-10T11:02:44;2.78;;;1.58;;
61899;SDS011;47853;55.890;37.664;2023-05-10T11:05:57;3.35;;;1.40;;
61899;SDS011;47853;55.890;37.664;2023-05-10T11:07:59;5.03;;;1.23;;
61899;SDS011;47853;55.890;37.664;2023-05-10T11:10:25;3.38;;;1.55;;
61899;SDS011;47853;55.890;37.664;2023-05-10T11:13:00;2.70;;;1.50;;
61899;SDS011;47853;55.890;37.664;2023-05-10T11:15:29;3.92;;;1.55;;
61899;SDS011;47853;55.890;37.664;2023-05-10T11:17:54;3.72;;;1.30;;
61899;SDS011;47853;55.890;37.664;2023-05-10T11:20:19;1.13;;;1.03;;
61899;SDS011;47853;55.890;37.664;2023-05-10T11:22:51;3.63;;;1.40;;
61899;SDS011;47853;55.890;37.664;2023-05-10T11:25:19;2.60;;;1.65;;
61899;SDS011;47853;55.890;37.664;2023-05-10T11:27:44;4.57;;;1.70;;
61899;SDS011;47853;55.890;37.664;2023-05-10T11:30:10;3.55;;;1.42;;
61899;SDS011;47853;55.890;37.664;2023-05-10T11:32:38;4.53;;;1.60;;
61899;SDS011;47853;55.890;37.664;2023-05-10T11:35:07;4.28;;;1.60;;
61899;SDS011;47853;55.890;37.664;2023-05-10T11:37:32;3.60;;;1.50;;
61899;SDS011;47853;55.890;37.664;2023-05-10T11:39:57;3.63;;;1.73;;
61899;SDS011;47853;55.890;37.664;2023-05-10T11:42:23;4.00;;;1.30;;
61899;SDS011;47853;55.890;37.664;2023-05-10T11:44:48;1.37;;;1.17;;
61899;SDS011;47853;55.890;37.664;2023-05-10T11:47:13;2.50;;;1.20;;
61899;SDS011;47853;55.890;37.664;2023-05-10T11:49:38;5.10;;;2.77;;
61899;SDS011;47853;55.890;37.664;2023-05-10T11:52:06;4.43;;;1.50;;
61899;SDS011;47853;55.890;37.664;2023-05-10T11:54:32;2.00;;;1.77;;
61899;SDS011;47853;55.890;37.664;2023-05-10T11:56:57;3.77;;;1.43;;
61899;SDS011;47853;55.890;37.664;2023-05-10T11:59:22;3.47;;;1.53;;
61899;SDS011;47853;55.890;37.664;2023-05-10T12:01:47;3.20;;;1.83;;
61899;SDS011;47853;55.890;37.664;2023-05-10T12:04:13;2.97;;;1.67;;
61899;SDS011;47853;55.890;37.664;2023-05-10T12:06:39;5.40;;;1.67;;
61899;SDS011;47853;55.890;37.664;2023-05-10T12:09:05;4.18;;;1.95;;
61899;SDS011;47853;55.890;37.664;2023-05-10T12:11:31;4.95;;;1.92;;
61899;SDS011;47853;55.890;37.664;2023-05-10T12:13:57;4.30;;;2.47;;
61899;SDS011;47853;55.890;37.664;2023-05-10T12:16:23;4.88;;;1.80;;
61899;SDS011;47853;55.890;37.664;2023-05-10T12:18:49;9.52;;;2.28;;
61899;SDS011;47853;55.890;37.664;2023-05-10T12:21:14;10.35;;;2.28;;
61899;SDS011;47853;55.890;37.664;2023-05-10T12:23:40;3.72;;;2.03;;
61899;SDS011;47853;55.890;37.664;2023-05-10T12:26:06;3.15;;;1.95;;
61899;SDS011;47853;55.890;37.664;2023-05-10T12:28:31;3.65;;;1.80;;
61899;SDS011;47853;55.890;37.664;2023-05-10T12:30:57;3.28;;;1.50;;
61899;SDS011;47853;55.890;37.664;2023-05-10T12:33:22;4.45;;;2.05;;
61899;SDS011;47853;55.890;37.664;2023-05-10T12:35:48;6.93;;;2.25;;
61899;SDS011;47853;55.890;37.664;2023-05-10T12:38:27;1.92;;;1.73;;
61899;SDS011;47853;55.890;37.664;2023-05-10T12:40:52;4.72;;;1.95;;
61899;SDS011;47853;55.890;37.664;2023-05-10T12:43:17;3.77;;;1.70;;
61899;SDS011;47853;55.890;37.664;2023-05-10T12:45:42;6.83;;;2.13;;
61899;SDS011;47853;55.890;37.664;2023-05-10T12:48:07;3.63;;;2.13;;
61899;SDS011;47853;55.890;37.664;2023-05-10T12:50:33;3.17;;;2.17;;
61899;SDS011;47853;55.890;37.664;2023-05-10T12:52:58;3.77;;;1.80;;
61899;SDS011;47853;55.890;37.664;2023-05-10T12:55:23;3.43;;;1.20;;
61899;SDS011;47853;55.890;37.664;2023-05-10T12:57:48;1.80;;;1.60;;
61899;SDS011;47853;55.890;37.664;2023-05-10T13:00:13;6.67;;;1.50;;
61899;SDS011;47853;55.890;37.664;2023-05-10T13:02:39;3.50;;;1.40;;
61899;SDS011;47853;55.890;37.664;2023-05-10T13:05:04;3.00;;;1.50;;
61899;SDS011;47853;55.890;37.664;2023-05-10T13:07:29;3.78;;;1.48;;
61899;SDS011;47853;55.890;37.664;2023-05-10T13:09:54;8.23;;;1.70;;
61899;SDS011;47853;55.890;37.664;2023-05-10T13:12:20;5.13;;;1.73;;
61899;SDS011;47853;55.890;37.664;2023-05-10T13:14:45;5.57;;;1.80;;
61899;SDS011;47853;55.890;37.664;2023-05-10T13:17:10;2.13;;;1.33;;
61899;SDS011;47853;55.890;37.664;2023-05-10T13:19:35;6.53;;;1.80;;
61899;SDS011;47853;55.890;37.664;2023-05-10T13:22:00;4.63;;;1.90;;
61899;SDS011;47853;55.890;37.664;2023-05-10T13:24:25;4.07;;;1.90;;
61899;SDS011;47853;55.890;37.664;2023-05-10T13:26:50;5.70;;;2.30;;
61899;SDS011;47853;55.890;37.664;2023-05-10T13:29:16;5.93;;;1.87;;
61899;SDS011;47853;55.890;37.664;2023-05-10T13:31:41;4.70;;;1.67;;
61899;SDS011;47853;55.890;37.664;2023-05-10T13:34:06;3.37;;;1.40;;
61899;SDS011;47853;55.890;37.664;2023-05-10T13:36:31;6.32;;;1.70;;
61899;SDS011;47853;55.890;37.664;2023-05-10T13:38:56;2.87;;;1.40;;
61899;SDS011;47853;55.890;37.664;2023-05-10T13:41:21;5.10;;;1.77;;
61899;SDS011;47853;55.890;37.664;2023-05-10T13:43:47;6.82;;;2.00;;
61899;SDS011;47853;55.890;37.664;2023-05-10T13:46:12;6.03;;;2.40;;
61899;SDS011;47853;55.890;37.664;2023-05-10T13:48:37;4.20;;;2.20;;
61899;SDS011;47853;55.890;37.664;2023-05-10T13:51:02;6.00;;;2.00;;
61899;SDS011;47853;55.890;37.664;2023-05-10T13:53:28;5.05;;;1.80;;
61899;SDS011;47853;55.890;37.664;2023-05-10T13:55:53;2.83;;;1.80;;
61899;SDS011;47853;55.890;37.664;2023-05-10T13:58:18;3.67;;;1.97;;
61899;SDS011;47853;55.890;37.664;2023-05-10T14:00:43;5.67;;;2.83;;
61899;SDS011;47853;55.890;37.664;2023-05-10T14:03:08;6.77;;;2.13;;
61899;SDS011;47853;55.890;37.664;2023-05-10T14:05:33;5.63;;;2.20;;
61899;SDS011;47853;55.890;37.664;2023-05-10T14:07:58;10.83;;;2.07;;
61899;SDS011;47853;55.890;37.664;2023-05-10T14:10:24;8.70;;;1.70;;
61899;SDS011;47853;55.890;37.664;2023-05-10T14:12:49;4.33;;;1.73;;
61899;SDS011;47853;55.890;37.664;2023-05-10T14:15:14;7.55;;;1.90;;
61899;SDS011;47853;55.890;37.664;2023-05-10T14:17:39;8.27;;;2.03;;
61899;SDS011;47853;55.890;37.664;2023-05-10T14:20:05;6.87;;;1.93;;
61899;SDS011;47853;55.890;37.664;2023-05-10T14:22:30;3.33;;;1.50;;
61899;SDS011;47853;55.890;37.664;2023-05-10T14:24:55;8.90;;;2.10;;
61899;SDS011;47853;55.890;37.664;2023-05-10T14:27:20;9.73;;;1.93;;
61899;SDS011;47853;55.890;37.664;2023-05-10T14:29:46;8.10;;;2.03;;
61899;SDS011;47853;55.890;37.664;2023-05-10T14:32:12;2.80;;;1.45;;
61899;SDS011;47853;55.890;37.664;2023-05-10T14:34:37;3.27;;;1.53;;
61899;SDS011;47853;55.890;37.664;2023-05-10T14:37:02;4.83;;;1.70;;
61899;SDS011;47853;55.890;37.664;2023-05-10T14:39:27;4.80;;;1.40;;
61899;SDS011;47853;55.890;37.664;2023-05-10T14:41:52;4.70;;;2.17;;
61899;SDS011;47853;55.890;37.664;2023-05-10T14:44:17;5.03;;;2.27;;
61899;SDS011;47853;55.890;37.664;2023-05-10T14:46:43;2.20;;;1.80;;
61899;SDS011;47853;55.890;37.664;2023-05-10T14:49:08;5.03;;;1.70;;
61899;SDS011;47853;55.890;37.664;2023-05-10T14:51:33;2.47;;;2.00;;
61899;SDS011;47853;55.890;37.664;2023-05-10T14:53:58;3.97;;;2.10;;
61899;SDS011;47853;55.890;37.664;2023-05-10T14:56:23;7.80;;;1.80;;
61899;SDS011;47853;55.890;37.664;2023-05-10T14:58:49;3.15;;;1.67;;
61899;SDS011;47853;55.890;37.664;2023-05-10T15:01:14;4.25;;;1.70;;
61899;SDS011;47853;55.890;37.664;2023-05-10T15:03:40;4.55;;;2.00;;